Terminal Aerodrome Forecast
Issued by NWS

Home | Current Version | Previous Version | Text Only | Print | Product List | Glossary On
Versions: 1 2 3 4 5 6 7 8 9 10 11 12 13 14
000
FTUS44 KBMX 032328
TAFMGM
TAF
KMGM 032328Z 0400/0424 31006KT P6SM VCTS SCT050CB SCT120
     FM040200 22003KT P6SM SCT040 BKN250
     FM041000 30001KT 5SM BR SKC
     FM041400 26003KT P6SM SCT050 SCT250=

USA.gov is the U.S. government's official web portal to all federal, state and local government web resources and services.